Time,TemperatureF,DewpointF,PressureIn,WindDirection,WindDirectionDegrees,WindSpeedMPH,WindSpeedGustMPH,Humidity,HourlyPrecipIn,Conditions,Clouds,dailyrainin,SoftwareType,DateUTC
2013-07-12 13:12:00,82.0,52.4,29.99,North,0,3.5,3.5,36,0.00,CLR,,0.00,WeatherDisplay:10.37,2013-07-12 17:12:00,
2013-07-12 13:13:00,82.0,51.7,30.03,North,0,4.0,4.0,35,0.00,CLR,,0.00,WeatherDisplay:10.37,2013-07-12 17:13:00,
2013-07-12 13:14:00,82.6,52.2,30.03,SE,135,4.0,4.0,35,0.00,CLR,,0.00,WeatherDisplay:10.37,2013-07-12 17:14:00,
2013-07-12 13:18:00,82.8,52.3,29.99,SSE,157,4.0,0.0,35,0.00,CLR,,0.00,WeatherDisplay:10.37,2013-07-12 17:18:00,
2013-07-12 13:19:00,82.8,52.3,30.03,SSE,157,4.0,0.0,35,0.00,CLR,,0.00,WeatherDisplay:10.37,2013-07-12 17:19:00,
2013-07-12 13:23:00,82.4,50.4,29.99,SE,135,4.0,4.0,33,0.00,CLR,,0.00,WeatherDisplay:10.37,2013-07-12 17:23:00,
2013-07-12 13:24:00,82.6,50.6,29.99,ENE,67,4.0,4.0,33,0.00,CLR,,0.00,WeatherDisplay:10.37,2013-07-12 17:24:00,
2013-07-12 13:25:00,82.9,50.9,29.99,ENE,67,4.0,4.0,33,0.00,CLR,,0.00,WeatherDisplay:10.37,2013-07-12 17:25:00,
2013-07-12 13:28:00,82.4,51.2,29.98,NE,45,4.0,4.0,34,0.00,CLR,,0.00,WeatherDisplay:10.37,2013-07-12 17:28:00,
2013-07-12 13:30:00,82.6,51.4,29.98,SSE,157,4.0,4.0,34,0.00,CLR,,0.00,WeatherDisplay:10.37,2013-07-12 17:30:00,
2013-07-12 13:32:00,82.9,50.9,30.02,SE,135,4.0,4.0,33,0.00,CLR,,0.00,WeatherDisplay:10.37,2013-07-12 17:32:00,
2013-07-12 13:33:00,83.1,51.0,30.02,East,90,4.0,4.0,33,0.00,CLR,,0.00,WeatherDisplay:10.37,2013-07-12 17:33:00,
2013-07-12 13:36:00,83.5,51.3,30.00,East,90,4.0,4.0,33,0.00,CLR,,0.00,WeatherDisplay:10.37,2013-07-12 17:36:00,
2013-07-12 13:40:00,83.7,50.7,30.01,ESE,112,4.3,4.3,32,0.00,CLR,,0.00,WeatherDisplay:10.37,2013-07-12 17:40:00,
2013-07-12 13:41:00,82.2,49.4,30.01,NE,45,4.6,4.6,32,0.00,CLR,,0.00,WeatherDisplay:10.37,2013-07-12 17:41:00,
2013-07-12 13:43:00,82.2,50.2,29.99,NE,45,6.3,6.3,33,0.00,CLR,,0.00,WeatherDisplay:10.37,2013-07-12 17:43:00,
2013-07-12 13:48:00,80.6,48.8,30.03,ESE,112,6.3,6.3,33,0.00,CLR,,0.00,WeatherDisplay:10.37,2013-07-12 17:48:00,
2013-07-12 13:49:00,80.6,48.8,30.00,ESE,112,6.3,6.3,33,0.00,CLR,,0.00,WeatherDisplay:10.37,2013-07-12 17:49:00,
2013-07-12 13:52:00,81.9,49.9,30.00,ESE,112,6.3,6.3,33,0.00,CLR,,0.00,WeatherDisplay:10.37,2013-07-12 17:52:00,
2013-07-12 13:53:00,81.9,49.9,30.00,SE,135,6.3,6.3,33,0.00,CLR,,0.00,WeatherDisplay:10.37,2013-07-12 17:53:00,
2013-07-12 13:58:00,83.8,51.7,30.04,South,180,6.3,6.3,33,0.00,CLR,,0.00,WeatherDisplay:10.37,2013-07-12 17:58:00,
2013-07-12 13:59:00,83.8,51.7,30.04,SE,135,6.3,6.3,33,0.00,CLR,,0.00,WeatherDisplay:10.37,2013-07-12 17:59:00,
2013-07-12 14:02:00,84.2,52.0,30.00,South,180,6.3,6.3,33,0.00,CLR,,0.00,WeatherDisplay:10.37,2013-07-12 18:02:00,
2013-07-12 14:03:00,84.2,52.0,30.04,South,180,6.3,6.3,33,0.00,CLR,,0.00,WeatherDisplay:10.37,2013-07-12 18:03:00,
2013-07-12 14:04:00,83.5,50.5,30.04,South,180,6.3,6.3,32,0.00,CLR,,0.00,WeatherDisplay:10.37,2013-07-12 18:04:00,
2013-07-12 14:09:00,84.0,51.8,29.96,SE,135,6.3,6.3,33,0.00,CLR,,0.00,WeatherDisplay:10.37,2013-07-12 18:09:00,
2013-07-12 14:10:00,84.6,51.5,29.96,ESE,112,6.3,6.3,32,0.00,CLR,,0.00,WeatherDisplay:10.37,2013-07-12 18:10:00,
2013-07-12 14:13:00,84.9,52.6,30.00,ESE,112,6.3,6.3,33,0.00,CLR,,0.00,WeatherDisplay:10.37,2013-07-12 18:13:00,
2013-07-12 14:15:00,84.7,52.4,29.93,ESE,112,6.3,6.3,33,0.00,CLR,,0.00,WeatherDisplay:10.37,2013-07-12 18:15:00,
2013-07-12 14:18:00,84.9,53.4,30.04,South,180,6.3,6.3,34,0.00,CLR,,0.00,WeatherDisplay:10.37,2013-07-12 18:18:00,
2013-07-12 14:20:00,84.9,53.4,30.04,SSE,157,6.3,6.3,34,0.00,CLR,,0.00,WeatherDisplay:10.37,2013-07-12 18:20:00,
2013-07-12 14:21:00,84.9,53.4,30.04,SSE,157,6.3,6.3,34,0.00,CLR,,0.00,WeatherDisplay:10.37,2013-07-12 18:21:00,
2013-07-12 14:23:00,84.7,54.1,30.04,SE,135,6.3,6.3,35,0.00,CLR,,0.00,WeatherDisplay:10.37,2013-07-12 18:23:00,
2013-07-12 14:26:00,84.4,52.9,29.95,North,0,6.3,6.3,34,0.00,CLR,,0.00,WeatherDisplay:10.37,2013-07-12 18:26:00,
2013-07-12 14:28:00,83.5,52.2,29.94,NE,45,6.3,6.3,34,0.00,CLR,,0.00,WeatherDisplay:10.37,2013-07-12 18:28:00,
2013-07-12 14:29:00,83.5,52.2,29.94,NE,45,6.3,6.3,34,0.00,CLR,,0.00,WeatherDisplay:10.37,2013-07-12 18:29:00,
2013-07-12 14:31:00,82.2,51.1,29.95,NE,45,6.9,6.9,34,0.00,CLR,,0.00,WeatherDisplay:10.37,2013-07-12 18:31:00,
2013-07-12 14:36:00,80.1,49.9,30.00,NE,45,6.9,6.9,35,0.00,CLR,,0.00,WeatherDisplay:10.37,2013-07-12 18:36:00,
2013-07-12 14:38:00,79.2,49.1,30.00,NE,45,6.9,6.9,35,0.00,CLR,,0.00,WeatherDisplay:10.37,2013-07-12 18:38:00,
2013-07-12 14:39:00,78.1,48.2,30.00,NE,45,4.6,4.6,35,0.00,CLR,,0.00,WeatherDisplay:10.37,2013-07-12 18:39:00,
2013-07-12 14:40:00,78.1,48.2,29.94,NE,45,4.6,4.6,35,0.00,CLR,,0.00,WeatherDisplay:10.37,2013-07-12 18:40:00,
2013-07-12 14:42:00,77.4,47.6,30.01,North,0,4.6,4.6,35,0.00,CLR,,0.00,WeatherDisplay:10.37,2013-07-12 18:42:00,
2013-07-12 14:44:00,77.7,47.9,29.93,South,180,4.6,4.6,35,0.00,CLR,,0.00,WeatherDisplay:10.37,2013-07-12 18:44:00,
2013-07-12 14:46:00,78.4,48.5,29.93,ESE,112,4.6,4.6,35,0.00,CLR,,0.00,WeatherDisplay:10.37,2013-07-12 18:46:00,
2013-07-12 14:49:00,79.0,49.0,29.94,NNE,22,4.6,4.6,35,0.00,CLR,,0.00,WeatherDisplay:10.37,2013-07-12 18:49:00,
2013-07-12 14:50:00,79.2,49.1,29.94,ENE,67,4.6,6.3,35,0.00,CLR,,0.00,WeatherDisplay:10.37,2013-07-12 18:50:00,
2013-07-12 14:52:00,79.0,48.2,29.98,North,0,6.3,6.3,34,0.00,CLR,,0.00,WeatherDisplay:10.37,2013-07-12 18:52:00,
2013-07-12 14:53:00,79.2,48.4,29.98,North,0,6.3,6.3,34,0.00,CLR,,0.00,WeatherDisplay:10.37,2013-07-12 18:53:00,
2013-07-12 14:57:00,79.5,48.7,30.01,NE,45,6.3,6.3,34,0.00,CLR,,0.00,WeatherDisplay:10.37,2013-07-12 18:57:00,
2013-07-12 14:58:00,79.5,48.7,30.01,NE,45,6.3,6.3,34,0.00,CLR,,0.00,WeatherDisplay:10.37,2013-07-12 18:58:00,
2013-07-12 15:00:00,80.2,49.3,30.01,SE,135,6.3,6.3,34,0.00,CLR,,0.00,WeatherDisplay:10.37,2013-07-12 19:00:00,
2013-07-12 15:02:00,81.0,49.1,29.98,South,180,6.3,6.3,33,0.00,CLR,,0.00,WeatherDisplay:10.37,2013-07-12 19:02:00,
2013-07-12 15:06:00,82.6,50.6,29.94,SW,225,6.3,6.3,33,0.00,CLR,,0.00,WeatherDisplay:10.37,2013-07-12 19:06:00,
2013-07-12 15:07:00,82.8,50.7,29.94,NE,45,6.3,6.3,33,0.00,CLR,,0.00,WeatherDisplay:10.37,2013-07-12 19:07:00,
2013-07-12 15:08:00,82.8,50.7,29.94,NE,45,6.3,6.3,33,0.00,CLR,,0.00,WeatherDisplay:10.37,2013-07-12 19:08:00,
2013-07-12 15:10:00,82.9,50.9,30.04,East,90,6.3,6.3,33,0.00,CLR,,0.00,WeatherDisplay:10.37,2013-07-12 19:10:00,
2013-07-12 15:13:00,82.6,50.6,29.94,NE,45,6.3,6.3,33,0.00,CLR,,0.00,WeatherDisplay:10.37,2013-07-12 19:13:00,
2013-07-12 15:15:00,82.6,50.6,29.99,SSE,157,6.3,6.3,33,0.00,CLR,,0.00,WeatherDisplay:10.37,2013-07-12 19:15:00,
2013-07-12 15:19:00,82.8,51.5,29.94,ESE,112,6.3,6.3,34,0.00,CLR,,0.00,WeatherDisplay:10.37,2013-07-12 19:19:00,
2013-07-12 15:20:00,82.8,51.5,29.94,ESE,112,6.3,6.3,34,0.00,CLR,,0.00,WeatherDisplay:10.37,2013-07-12 19:20:00,
2013-07-12 15:25:00,81.3,49.5,30.01,NNE,22,6.3,6.3,33,0.00,CLR,,0.00,WeatherDisplay:10.37,2013-07-12 19:25:00,
2013-07-12 15:26:00,81.3,49.5,29.95,NNE,22,6.3,6.3,33,0.00,CLR,,0.00,WeatherDisplay:10.37,2013-07-12 19:26:00,
2013-07-12 15:28:00,81.3,49.5,29.95,NE,45,6.3,6.3,33,0.00,CLR,,0.00,WeatherDisplay:10.37,2013-07-12 19:28:00,
2013-07-12 15:32:00,80.8,49.0,29.95,NE,45,6.3,6.3,33,0.00,CLR,,0.00,WeatherDisplay:10.37,2013-07-12 19:32:00,
2013-07-12 15:36:00,80.6,48.8,29.95,NNW,337,6.3,6.3,33,0.00,CLR,,0.00,WeatherDisplay:10.37,2013-07-12 19:36:00,
2013-07-12 15:39:00,80.4,48.7,29.98,NE,45,3.5,3.5,33,0.00,CLR,,0.00,WeatherDisplay:10.37,2013-07-12 19:39:00,
2013-07-12 15:40:00,80.4,47.9,29.95,NE,45,3.5,3.5,32,0.00,CLR,,0.00,WeatherDisplay:10.37,2013-07-12 19:40:00,
2013-07-12 15:41:00,80.2,47.7,29.95,NW,315,3.5,3.5,32,0.00,CLR,,0.00,WeatherDisplay:10.37,2013-07-12 19:41:00,
2013-07-12 15:45:00,80.1,48.4,30.00,NE,45,3.5,4.5,33,0.00,CLR,,0.00,WeatherDisplay:10.37,2013-07-12 19:45:00,
2013-07-12 15:46:00,80.1,48.4,29.97,NE,45,4.5,4.5,33,0.00,CLR,,0.00,WeatherDisplay:10.37,2013-07-12 19:46:00,
2013-07-12 15:49:00,80.8,49.0,29.95,NE,45,4.6,4.6,33,0.00,CLR,,0.00,WeatherDisplay:10.37,2013-07-12 19:49:00,
2013-07-12 15:50:00,80.6,48.0,29.95,NNE,22,4.6,4.6,32,0.00,CLR,,0.00,WeatherDisplay:10.37,2013-07-12 19:50:00,
2013-07-12 15:52:00,80.6,47.2,29.99,NNE,22,4.6,4.6,31,0.00,CLR,,0.00,WeatherDisplay:10.37,2013-07-12 19:52:00,
2013-07-12 15:54:00,81.1,47.6,29.99,NE,45,4.6,4.6,31,0.00,CLR,,0.00,WeatherDisplay:10.37,2013-07-12 19:54:00,
2013-07-12 15:57:00,81.3,48.6,29.96,NE,45,4.6,4.6,32,0.00,CLR,,0.00,WeatherDisplay:10.37,2013-07-12 19:57:00,
2013-07-12 15:58:00,81.3,48.6,29.96,NE,45,4.6,4.6,32,0.00,CLR,,0.00,WeatherDisplay:10.37,2013-07-12 19:58:00,
2013-07-12 16:01:00,80.8,47.3,29.96,NE,45,5.1,5.1,31,0.00,CLR,,0.00,WeatherDisplay:10.37,2013-07-12 20:01:00,
2013-07-12 16:02:00,79.7,46.4,29.96,NNE,22,5.1,5.1,31,0.00,CLR,,0.00,WeatherDisplay:10.37,2013-07-12 20:02:00,
2013-07-12 16:04:00,78.8,46.4,29.95,NNE,22,5.1,5.1,32,0.00,CLR,,0.00,WeatherDisplay:10.37,2013-07-12 20:04:00,
2013-07-12 16:06:00,77.9,45.7,29.95,East,90,5.1,5.1,32,0.00,CLR,,0.00,WeatherDisplay:10.37,2013-07-12 20:06:00,
2013-07-12 16:09:00,77.5,46.2,29.95,NE,45,5.1,5.1,33,0.00,CLR,,0.00,WeatherDisplay:10.37,2013-07-12 20:09:00,
2013-07-12 16:11:00,77.2,45.8,29.95,NE,45,5.1,5.1,33,0.00,CLR,,0.00,WeatherDisplay:10.37,2013-07-12 20:11:00,
2013-07-12 16:13:00,76.8,45.5,29.95,NNE,22,5.1,5.1,33,0.00,CLR,,0.00,WeatherDisplay:10.37,2013-07-12 20:13:00,
2013-07-12 16:14:00,76.8,46.3,30.00,NNE,22,6.1,6.1,34,0.00,CLR,,0.00,WeatherDisplay:10.37,2013-07-12 20:14:00,
2013-07-12 16:16:00,76.8,46.3,29.94,ENE,67,6.1,6.1,34,0.00,CLR,,0.00,WeatherDisplay:10.37,2013-07-12 20:16:00,
2013-07-12 16:21:00,77.0,47.2,29.94,East,90,6.1,0.0,35,0.00,CLR,,0.00,WeatherDisplay:10.37,2013-07-12 20:21:00,
2013-07-12 16:24:00,77.5,46.9,29.94,WNW,292,6.1,6.1,34,0.00,CLR,,0.00,WeatherDisplay:10.37,2013-07-12 20:24:00,
2013-07-12 16:29:00,77.7,47.9,29.99,WNW,292,6.1,0.0,35,0.00,CLR,,0.00,WeatherDisplay:10.37,2013-07-12 20:29:00,
2013-07-12 16:30:00,77.9,48.0,29.99,WNW,292,6.1,0.0,35,0.00,CLR,,0.00,WeatherDisplay:10.37,2013-07-12 20:30:00,
2013-07-12 16:31:00,77.9,48.0,30.03,WNW,292,6.1,0.0,35,0.00,CLR,,0.00,WeatherDisplay:10.37,2013-07-12 20:31:00,
2013-07-12 16:34:00,78.3,46.8,29.93,NW,315,6.1,6.1,33,0.00,CLR,,0.00,WeatherDisplay:10.37,2013-07-12 20:34:00,
2013-07-12 16:35:00,78.3,46.8,29.93,NNW,337,6.1,6.1,33,0.00,CLR,,0.00,WeatherDisplay:10.37,2013-07-12 20:35:00,
2013-07-12 16:36:00,78.3,46.8,29.98,NNW,337,6.1,6.1,33,0.00,CLR,,0.00,WeatherDisplay:10.37,2013-07-12 20:36:00,
2013-07-12 16:40:00,78.8,45.6,29.94,North,0,5.8,5.8,31,0.00,CLR,,0.00,WeatherDisplay:10.37,2013-07-12 20:40:00,
2013-07-12 16:42:00,78.4,45.3,29.94,NNW,337,3.5,3.5,31,0.00,CLR,,0.00,WeatherDisplay:10.37,2013-07-12 20:42:00,
2013-07-12 16:44:00,78.4,44.4,29.98,North,0,3.5,3.5,30,0.00,CLR,,0.00,WeatherDisplay:10.37,2013-07-12 20:44:00,
2013-07-12 16:45:00,78.4,44.4,29.94,North,0,3.5,3.5,30,0.00,CLR,,0.00,WeatherDisplay:10.37,2013-07-12 20:45:00,
2013-07-12 16:46:00,78.3,44.3,29.94,WNW,292,3.5,3.5,30,0.00,CLR,,0.00,WeatherDisplay:10.37,2013-07-12 20:46:00,
2013-07-12 16:47:00,78.3,43.4,29.94,WNW,292,3.5,3.5,29,0.00,CLR,,0.00,WeatherDisplay:10.37,2013-07-12 20:47:00,
2013-07-12 16:51:00,78.4,43.5,29.95,NE,45,3.5,3.5,29,0.00,CLR,,0.00,WeatherDisplay:10.37,2013-07-12 20:51:00,
2013-07-12 16:52:00,78.3,42.5,29.95,WNW,292,3.5,3.5,28,0.00,CLR,,0.00,WeatherDisplay:10.37,2013-07-12 20:52:00,
2013-07-12 16:54:00,78.3,43.4,29.94,NNW,337,3.5,3.5,29,0.00,CLR,,0.00,WeatherDisplay:10.37,2013-07-12 20:54:00,
2013-07-12 16:55:00,78.3,43.4,29.95,NNW,337,3.5,3.5,29,0.00,CLR,,0.00,WeatherDisplay:10.37,2013-07-12 20:55:00,
2013-07-12 16:57:00,77.9,43.1,29.95,ENE,67,3.5,0.0,29,0.00,CLR,,0.00,WeatherDisplay:10.37,2013-07-12 20:57:00,
2013-07-12 17:00:00,78.1,44.1,29.98,ENE,67,3.5,3.5,30,0.00,CLR,,0.00,WeatherDisplay:10.37,2013-07-12 21:00:00,
2013-07-12 17:01:00,78.4,44.4,29.98,ENE,67,3.5,3.5,30,0.00,CLR,,0.00,WeatherDisplay:10.37,2013-07-12 21:01:00,
2013-07-12 17:03:00,78.4,43.5,29.95,NNE,22,3.5,3.8,29,0.00,CLR,,0.00,WeatherDisplay:10.37,2013-07-12 21:03:00,
2013-07-12 17:04:00,78.4,43.5,29.95,NNE,22,3.5,3.8,29,0.00,CLR,,0.00,WeatherDisplay:10.37,2013-07-12 21:04:00,
2013-07-12 17:09:00,77.7,42.9,29.97,NE,45,4.6,4.6,29,0.00,CLR,,0.00,WeatherDisplay:10.37,2013-07-12 21:09:00,
2013-07-12 17:10:00,77.9,43.1,29.97,South,180,4.6,4.6,29,0.00,CLR,,0.00,WeatherDisplay:10.37,2013-07-12 21:10:00,
2013-07-12 17:12:00,77.9,43.1,29.95,SE,135,4.6,4.6,29,0.00,CLR,,0.00,WeatherDisplay:10.37,2013-07-12 21:12:00,
2013-07-12 17:15:00,78.1,43.2,29.99,NNE,22,4.6,4.6,29,0.00,CLR,,0.00,WeatherDisplay:10.37,2013-07-12 21:15:00,
2013-07-12 17:18:00,77.9,43.1,29.99,South,180,4.6,4.6,29,0.00,CLR,,0.00,WeatherDisplay:10.37,2013-07-12 21:18:00,
2013-07-12 17:19:00,77.9,43.1,29.99,South,180,4.6,4.6,29,0.00,CLR,,0.00,WeatherDisplay:10.37,2013-07-12 21:19:00,
2013-07-12 17:20:00,77.9,43.1,29.99,South,180,4.6,4.6,29,0.00,CLR,,0.00,WeatherDisplay:10.37,2013-07-12 21:20:00,
2013-07-12 17:22:00,77.7,42.0,29.99,NNW,337,4.6,4.6,28,0.00,CLR,,0.00,WeatherDisplay:10.37,2013-07-12 21:22:00,
2013-07-12 17:25:00,77.2,42.5,29.95,NE,45,4.6,4.6,29,0.00,CLR,,0.00,WeatherDisplay:10.37,2013-07-12 21:25:00,
2013-07-12 17:27:00,77.2,42.5,29.95,East,90,4.6,4.6,29,0.00,CLR,,0.00,WeatherDisplay:10.37,2013-07-12 21:27:00,
2013-07-12 17:30:00,77.2,42.5,29.99,ENE,67,4.6,4.6,29,0.00,CLR,,0.00,WeatherDisplay:10.37,2013-07-12 21:30:00,
2013-07-12 17:31:00,77.2,42.5,29.99,East,90,4.6,4.6,29,0.00,CLR,,0.00,WeatherDisplay:10.37,2013-07-12 21:31:00,
2013-07-12 17:36:00,76.6,42.0,29.96,North,0,4.6,4.6,29,0.00,CLR,,0.00,WeatherDisplay:10.37,2013-07-12 21:36:00,
2013-07-12 17:37:00,76.6,42.0,29.99,North,0,4.6,4.6,29,0.00,CLR,,0.00,WeatherDisplay:10.37,2013-07-12 21:37:00,
2013-07-12 17:38:00,76.3,41.7,29.99,NE,45,4.6,6.9,29,0.00,CLR,,0.00,WeatherDisplay:10.37,2013-07-12 21:38:00,
2013-07-12 17:42:00,75.7,41.2,29.96,North,0,6.9,6.9,29,0.00,CLR,,0.00,WeatherDisplay:10.37,2013-07-12 21:42:00,
2013-07-12 17:44:00,75.4,40.0,30.00,NNE,22,6.9,6.9,28,0.00,CLR,,0.00,WeatherDisplay:10.37,2013-07-12 21:44:00,
2013-07-12 17:45:00,75.4,40.0,29.96,NNE,22,6.9,6.9,28,0.00,CLR,,0.00,WeatherDisplay:10.37,2013-07-12 21:45:00,
2013-07-12 17:49:00,75.4,40.0,29.97,SE,135,6.9,6.9,28,0.00,CLR,,0.00,WeatherDisplay:10.37,2013-07-12 21:49:00,
2013-07-12 17:50:00,75.4,40.0,29.97,NE,45,6.9,6.9,28,0.00,CLR,,0.00,WeatherDisplay:10.37,2013-07-12 21:50:00,
2013-07-12 17:54:00,75.4,40.0,29.96,SSW,202,6.9,6.9,28,0.00,CLR,,0.00,WeatherDisplay:10.37,2013-07-12 21:54:00,
2013-07-12 17:57:00,75.4,40.0,30.00,NE,45,6.9,6.9,28,0.00,CLR,,0.00,WeatherDisplay:10.37,2013-07-12 21:57:00,
2013-07-12 17:58:00,75.4,40.0,29.96,NE,45,6.9,6.9,28,0.00,CLR,,0.00,WeatherDisplay:10.37,2013-07-12 21:58:00,
2013-07-12 18:02:00,75.2,39.8,29.97,WNW,292,6.9,6.9,28,0.00,CLR,,0.00,WeatherDisplay:10.37,2013-07-12 22:02:00,
2013-07-12 18:04:00,75.2,39.8,29.96,NNE,22,6.9,6.9,28,0.00,CLR,,0.00,WeatherDisplay:10.37,2013-07-12 22:04:00,
2013-07-12 18:06:00,75.0,39.7,29.95,WSW,247,6.9,0.0,28,0.00,CLR,,0.00,WeatherDisplay:10.37,2013-07-12 22:06:00,
2013-07-12 18:07:00,75.0,39.7,29.95,SE,135,6.9,6.9,28,0.00,CLR,,0.00,WeatherDisplay:10.37,2013-07-12 22:07:00,
2013-07-12 18:08:00,75.0,39.7,29.95,SE,135,6.9,6.9,28,0.00,CLR,,0.00,WeatherDisplay:10.37,2013-07-12 22:08:00,
2013-07-12 18:15:00,75.4,40.0,29.98,North,0,6.9,6.9,28,0.00,CLR,,0.00,WeatherDisplay:10.37,2013-07-12 22:15:00,
2013-07-12 18:16:00,75.2,39.8,29.98,North,0,6.9,6.9,28,0.00,CLR,,0.00,WeatherDisplay:10.37,2013-07-12 22:16:00,
2013-07-12 18:17:00,75.2,39.8,29.97,North,0,6.9,6.9,28,0.00,CLR,,0.00,WeatherDisplay:10.37,2013-07-12 22:17:00,
2013-07-12 18:22:00,74.7,39.4,29.99,North,0,6.9,6.9,28,0.00,CLR,,0.00,WeatherDisplay:10.37,2013-07-12 22:22:00,
2013-07-12 18:23:00,74.7,39.4,29.95,North,0,6.9,6.9,28,0.00,CLR,,0.00,WeatherDisplay:10.37,2013-07-12 22:23:00,
2013-07-12 18:28:00,74.7,39.4,29.94,SE,135,6.9,6.9,28,0.00,CLR,,0.00,WeatherDisplay:10.37,2013-07-12 22:28:00,
2013-07-12 18:29:00,74.7,39.4,29.95,SE,135,6.9,6.9,28,0.00,CLR,,0.00,WeatherDisplay:10.37,2013-07-12 22:29:00,
2013-07-12 18:30:00,74.5,39.2,29.95,NE,45,6.9,6.9,28,0.00,CLR,,0.00,WeatherDisplay:10.37,2013-07-12 22:30:00,
2013-07-12 18:31:00,74.5,39.2,29.94,NE,45,6.9,6.9,28,0.00,CLR,,0.00,WeatherDisplay:10.37,2013-07-12 22:31:00,
2013-07-12 18:36:00,74.3,39.1,29.95,ESE,112,6.9,6.9,28,0.00,CLR,,0.00,WeatherDisplay:10.37,2013-07-12 22:36:00,
2013-07-12 18:37:00,74.1,38.9,29.95,SE,135,6.9,6.9,28,0.00,CLR,,0.00,WeatherDisplay:10.37,2013-07-12 22:37:00,
2013-07-12 18:40:00,74.1,38.9,29.94,SSE,157,4.7,4.7,28,0.00,CLR,,0.00,WeatherDisplay:10.37,2013-07-12 22:40:00,
2013-07-12 18:41:00,74.1,38.9,29.94,ESE,112,4.7,4.7,28,0.00,CLR,,0.00,WeatherDisplay:10.37,2013-07-12 22:41:00,
2013-07-12 18:45:00,74.1,38.9,29.95,ENE,67,4.9,4.9,28,0.00,CLR,,0.00,WeatherDisplay:10.37,2013-07-12 22:45:00,
2013-07-12 18:46:00,73.9,39.7,29.95,SE,135,4.9,4.9,29,0.00,CLR,,0.00,WeatherDisplay:10.37,2013-07-12 22:46:00,
2013-07-12 18:48:00,73.8,39.5,29.98,NW,315,4.9,4.9,29,0.00,CLR,,0.00,WeatherDisplay:10.37,2013-07-12 22:48:00,
2013-07-12 18:53:00,73.2,39.0,29.94,North,0,4.9,4.9,29,0.00,CLR,,0.00,WeatherDisplay:10.37,2013-07-12 22:53:00,
2013-07-12 18:54:00,73.2,39.0,29.98,North,0,4.9,4.9,29,0.00,CLR,,0.00,WeatherDisplay:10.37,2013-07-12 22:54:00,
2013-07-12 18:58:00,72.9,37.8,29.97,NE,45,4.9,4.9,28,0.00,CLR,,0.00,WeatherDisplay:10.37,2013-07-12 22:58:00,
2013-07-12 19:00:00,72.9,37.8,29.97,NE,45,4.9,4.9,28,0.00,CLR,,0.00,WeatherDisplay:10.37,2013-07-12 23:00:00,
2013-07-12 19:02:00,72.9,37.8,29.94,NE,45,4.9,4.9,28,0.00,CLR,,0.00,WeatherDisplay:10.37,2013-07-12 23:02:00,
2013-07-12 19:04:00,72.9,37.8,29.98,NE,45,4.9,4.9,28,0.00,CLR,,0.00,WeatherDisplay:10.37,2013-07-12 23:04:00,
2013-07-12 19:06:00,72.7,37.7,29.94,NNW,337,4.9,4.9,28,0.00,CLR,,0.00,WeatherDisplay:10.37,2013-07-12 23:06:00,
2013-07-12 19:10:00,72.7,37.7,29.95,SE,135,4.9,0.0,28,0.00,CLR,,0.00,WeatherDisplay:10.37,2013-07-12 23:10:00,
2013-07-12 19:12:00,72.5,37.5,29.94,ESE,112,4.9,4.9,28,0.00,CLR,,0.00,WeatherDisplay:10.37,2013-07-12 23:12:00,
2013-07-12 19:16:00,72.7,38.6,29.97,NE,45,4.9,4.9,29,0.00,CLR,,0.00,WeatherDisplay:10.37,2013-07-12 23:16:00,
2013-07-12 19:17:00,72.7,38.6,29.96,NE,45,4.9,4.9,29,0.00,CLR,,0.00,WeatherDisplay:10.37,2013-07-12 23:17:00,
2013-07-12 19:18:00,72.7,38.6,29.96,SSE,157,4.9,4.9,29,0.00,CLR,,0.00,WeatherDisplay:10.37,2013-07-12 23:18:00,
2013-07-12 19:21:00,72.7,38.6,30.02,South,180,4.9,4.9,29,0.00,CLR,,0.00,WeatherDisplay:10.37,2013-07-12 23:21:00,
2013-07-12 19:23:00,72.5,38.4,30.02,SE,135,4.9,4.9,29,0.00,CLR,,0.00,WeatherDisplay:10.37,2013-07-12 23:23:00,
2013-07-12 19:25:00,72.5,38.4,29.93,NNE,22,4.9,4.9,29,0.00,CLR,,0.00,WeatherDisplay:10.37,2013-07-12 23:25:00,
2013-07-12 19:27:00,72.5,38.4,29.96,NE,45,4.9,4.9,29,0.00,CLR,,0.00,WeatherDisplay:10.37,2013-07-12 23:27:00,
2013-07-12 19:28:00,72.5,38.4,29.98,NE,45,4.9,4.9,29,0.00,CLR,,0.00,WeatherDisplay:10.37,2013-07-12 23:28:00,
2013-07-12 19:30:00,72.5,38.4,29.93,East,90,4.9,4.9,29,0.00,CLR,,0.00,WeatherDisplay:10.37,2013-07-12 23:30:00,
2013-07-12 19:33:00,72.5,38.4,29.93,NE,45,4.9,4.9,29,0.00,CLR,,0.00,WeatherDisplay:10.37,2013-07-12 23:33:00,
2013-07-12 19:35:00,72.5,39.3,29.93,East,90,4.9,4.9,30,0.00,CLR,,0.00,WeatherDisplay:10.37,2013-07-12 23:35:00,
2013-07-12 19:38:00,72.5,38.4,29.98,NE,45,4.9,4.9,29,0.00,CLR,,0.00,WeatherDisplay:10.37,2013-07-12 23:38:00,
2013-07-12 19:40:00,72.3,38.3,29.98,NE,45,4.9,4.9,29,0.00,CLR,,0.00,WeatherDisplay:10.37,2013-07-12 23:40:00,
2013-07-12 19:42:00,72.1,39.0,29.98,NNE,22,4.9,4.9,30,0.00,CLR,,0.00,WeatherDisplay:10.37,2013-07-12 23:42:00,
2013-07-12 19:45:00,72.1,39.0,29.93,NNE,22,4.9,4.9,30,0.00,CLR,,0.00,WeatherDisplay:10.37,2013-07-12 23:45:00,
2013-07-12 19:47:00,72.1,40.6,29.99,North,0,4.9,4.9,32,0.00,CLR,,0.00,WeatherDisplay:10.37,2013-07-12 23:47:00,
2013-07-12 19:50:00,72.0,40.5,30.02,NE,45,4.9,4.9,32,0.00,CLR,,0.00,WeatherDisplay:10.37,2013-07-12 23:50:00,
2013-07-12 19:51:00,72.0,40.5,30.02,NNE,22,4.9,4.9,32,0.00,CLR,,0.00,WeatherDisplay:10.37,2013-07-12 23:51:00,
2013-07-12 19:53:00,72.0,40.5,29.92,NNE,22,4.9,4.9,32,0.00,CLR,,0.00,WeatherDisplay:10.37,2013-07-12 23:53:00,
2013-07-12 19:54:00,71.8,40.3,29.92,NE,45,4.9,4.9,32,0.00,CLR,,0.00,WeatherDisplay:10.37,2013-07-12 23:54:00,
2013-07-12 19:56:00,71.8,39.5,30.03,ENE,67,4.9,0.0,31,0.00,CLR,,0.00,WeatherDisplay:10.37,2013-07-12 23:56:00,
2013-07-12 19:57:00,71.8,40.3,29.96,ENE,67,4.9,0.0,32,0.00,CLR,,0.00,WeatherDisplay:10.37,2013-07-12 23:57:00,
2013-07-12 20:01:00,71.4,40.0,29.92,NE,45,4.9,4.9,32,0.00,CLR,,0.00,WeatherDisplay:10.37,2013-07-13 00:01:00,
2013-07-12 20:02:00,71.4,40.0,29.92,NE,45,4.9,4.9,32,0.00,CLR,,0.00,WeatherDisplay:10.37,2013-07-13 00:02:00,
2013-07-12 20:04:00,71.4,40.0,29.99,NE,45,4.9,4.9,32,0.00,CLR,,0.00,WeatherDisplay:10.37,2013-07-13 00:04:00,
2013-07-12 20:07:00,71.2,39.9,29.99,East,90,4.9,4.9,32,0.00,CLR,,0.00,WeatherDisplay:10.37,2013-07-13 00:07:00,
2013-07-12 20:08:00,71.2,39.9,29.97,East,90,4.9,4.9,32,0.00,CLR,,0.00,WeatherDisplay:10.37,2013-07-13 00:08:00,
2013-07-12 20:12:00,71.2,39.9,30.02,NE,45,4.9,0.0,32,0.00,CLR,,0.00,WeatherDisplay:10.37,2013-07-13 00:12:00,
2013-07-12 20:13:00,71.1,38.9,30.02,NE,45,4.9,4.9,31,0.00,CLR,,0.00,WeatherDisplay:10.37,2013-07-13 00:13:00,
2013-07-12 20:15:00,71.1,39.7,30.00,East,90,4.9,4.9,32,0.00,CLR,,0.00,WeatherDisplay:10.37,2013-07-13 00:15:00,
2013-07-12 20:18:00,71.1,38.9,29.99,NE,45,4.9,4.9,31,0.00,CLR,,0.00,WeatherDisplay:10.37,2013-07-13 00:18:00,
2013-07-12 20:19:00,71.1,38.9,29.92,NE,45,4.9,4.9,31,0.00,CLR,,0.00,WeatherDisplay:10.37,2013-07-13 00:19:00,
2013-07-12 20:21:00,71.1,39.7,29.92,NE,45,4.9,4.9,32,0.00,CLR,,0.00,WeatherDisplay:10.37,2013-07-13 00:21:00,
2013-07-12 20:22:00,70.9,39.5,29.92,NE,45,4.9,4.9,32,0.00,CLR,,0.00,WeatherDisplay:10.37,2013-07-13 00:22:00,
2013-07-12 20:25:00,70.9,39.5,29.92,ENE,67,4.9,4.9,32,0.00,CLR,,0.00,WeatherDisplay:10.37,2013-07-13 00:25:00,
2013-07-12 20:26:00,70.9,40.3,29.92,ENE,67,4.9,4.9,33,0.00,CLR,,0.00,WeatherDisplay:10.37,2013-07-13 00:26:00,
2013-07-12 20:27:00,70.9,40.3,29.92,ENE,67,4.9,4.9,33,0.00,CLR,,0.00,WeatherDisplay:10.37,2013-07-13 00:27:00,
2013-07-12 20:30:00,70.5,40.0,30.02,NE,45,4.9,0.0,33,0.00,CLR,,0.00,WeatherDisplay:10.37,2013-07-13 00:30:00,
2013-07-12 20:32:00,70.3,39.9,30.01,NE,45,4.9,0.0,33,0.00,CLR,,0.00,WeatherDisplay:10.37,2013-07-13 00:32:00,
2013-07-12 20:33:00,70.3,39.9,29.94,NE,45,4.9,0.0,33,0.00,CLR,,0.00,WeatherDisplay:10.37,2013-07-13 00:33:00,
2013-07-12 20:37:00,70.0,38.8,29.92,NE,45,4.6,0.0,32,0.00,CLR,,0.00,WeatherDisplay:10.37,2013-07-13 00:37:00,
2013-07-12 20:38:00,69.8,37.8,29.92,NE,45,4.6,0.0,31,0.00,CLR,,0.00,WeatherDisplay:10.37,2013-07-13 00:38:00,
2013-07-12 20:40:00,69.6,37.6,29.91,ENE,67,0.0,0.0,31,0.00,CLR,,0.00,WeatherDisplay:10.37,2013-07-13 00:40:00,
2013-07-12 20:43:00,69.3,38.1,29.97,ENE,67,0.0,0.0,32,0.00,CLR,,0.00,WeatherDisplay:10.37,2013-07-13 00:43:00,
2013-07-12 20:46:00,69.1,38.8,30.01,WNW,292,0.0,0.0,33,0.00,CLR,,0.00,WeatherDisplay:10.37,2013-07-13 00:46:00,
2013-07-12 20:48:00,69.1,39.5,30.01,WNW,292,0.0,0.0,34,0.00,CLR,,0.00,WeatherDisplay:10.37,2013-07-13 00:48:00,
2013-07-12 20:49:00,69.1,38.8,30.01,WNW,292,0.0,0.0,33,0.00,CLR,,0.00,WeatherDisplay:10.37,2013-07-13 00:49:00,
2013-07-12 20:53:00,68.7,39.2,30.01,WNW,292,0.0,0.0,34,0.00,CLR,,0.00,WeatherDisplay:10.37,2013-07-13 00:53:00,
2013-07-12 20:54:00,68.7,39.2,29.97,WNW,292,0.0,0.0,34,0.00,CLR,,0.00,WeatherDisplay:10.37,2013-07-13 00:54:00,
2013-07-12 20:58:00,68.5,39.0,29.96,NNW,337,0.0,0.0,34,0.00,CLR,,0.00,WeatherDisplay:10.37,2013-07-13 00:58:00,
2013-07-12 20:59:00,68.4,38.9,29.96,NNW,337,0.0,0.0,34,0.00,CLR,,0.00,WeatherDisplay:10.37,2013-07-13 00:59:00,
2013-07-12 21:03:00,68.2,39.5,29.98,NNW,337,0.0,0.0,35,0.00,CLR,,0.00,WeatherDisplay:10.37,2013-07-13 01:03:00,
2013-07-12 21:04:00,68.0,39.3,29.98,SW,225,0.0,0.0,35,0.00,CLR,,0.00,WeatherDisplay:10.37,2013-07-13 01:04:00,
2013-07-12 21:05:00,68.0,39.3,30.00,SW,225,0.0,0.0,35,0.00,CLR,,0.00,WeatherDisplay:10.37,2013-07-13 01:05:00,
2013-07-12 21:06:00,67.8,38.4,30.00,SW,225,0.0,0.0,34,0.00,CLR,,0.00,WeatherDisplay:10.37,2013-07-13 01:06:00,
2013-07-12 21:09:00,67.8,38.4,29.97,SW,225,0.0,0.0,34,0.00,CLR,,0.00,WeatherDisplay:10.37,2013-07-13 01:09:00,
2013-07-12 21:12:00,67.5,38.1,29.97,SW,225,0.0,0.0,34,0.00,CLR,,0.00,WeatherDisplay:10.37,2013-07-13 01:12:00,
2013-07-12 21:13:00,67.5,38.1,29.97,SW,225,0.0,0.0,34,0.00,CLR,,0.00,WeatherDisplay:10.37,2013-07-13 01:13:00,
2013-07-12 21:16:00,67.3,37.9,29.97,SW,225,0.0,0.0,34,0.00,CLR,,0.00,WeatherDisplay:10.37,2013-07-13 01:16:00,
2013-07-12 21:17:00,67.1,37.8,29.97,SW,225,0.0,0.0,34,0.00,CLR,,0.00,WeatherDisplay:10.37,2013-07-13 01:17:00,
2013-07-12 21:19:00,67.1,37.8,29.96,SSW,202,0.0,0.0,34,0.00,CLR,,0.00,WeatherDisplay:10.37,2013-07-13 01:19:00,
2013-07-12 21:21:00,66.9,37.6,30.01,SSW,202,0.0,0.0,34,0.00,CLR,,0.00,WeatherDisplay:10.37,2013-07-13 01:21:00,
2013-07-12 21:24:00,66.7,37.5,29.97,SSW,202,0.0,0.0,34,0.00,CLR,,0.00,WeatherDisplay:10.37,2013-07-13 01:24:00,
2013-07-12 21:25:00,66.7,36.7,29.97,SSW,202,0.0,0.0,33,0.00,CLR,,0.00,WeatherDisplay:10.37,2013-07-13 01:25:00,
2013-07-12 21:26:00,66.6,36.5,29.97,SW,225,0.0,0.0,33,0.00,CLR,,0.00,WeatherDisplay:10.37,2013-07-13 01:26:00,
2013-07-12 21:29:00,66.6,36.5,29.97,West,270,0.0,0.0,33,0.00,CLR,,0.00,WeatherDisplay:10.37,2013-07-13 01:29:00,
2013-07-12 21:31:00,66.6,36.5,29.97,West,270,0.0,0.0,33,0.00,CLR,,0.00,WeatherDisplay:10.37,2013-07-13 01:31:00,
2013-07-12 21:34:00,66.2,37.0,29.97,West,270,0.0,0.0,34,0.00,CLR,,0.00,WeatherDisplay:10.37,2013-07-13 01:34:00,
2013-07-12 21:37:00,66.2,37.0,29.97,West,270,0.0,0.0,34,0.00,CLR,,0.00,WeatherDisplay:10.37,2013-07-13 01:37:00,
2013-07-12 21:39:00,66.0,36.8,29.97,West,270,0.0,0.0,34,0.00,CLR,,0.00,WeatherDisplay:10.37,2013-07-13 01:39:00,
2013-07-12 21:44:00,65.7,36.5,30.00,NNW,337,0.0,0.0,34,0.00,CLR,,0.00,WeatherDisplay:10.37,2013-07-13 01:44:00,
2013-07-12 21:47:00,65.5,34.8,30.01,NNW,337,0.0,0.0,32,0.00,CLR,,0.00,WeatherDisplay:10.37,2013-07-13 01:47:00,
2013-07-12 21:49:00,65.5,34.8,30.01,NNW,337,0.0,0.0,32,0.00,CLR,,0.00,WeatherDisplay:10.37,2013-07-13 01:49:00,
2013-07-12 21:50:00,65.3,34.7,30.01,NNW,337,0.0,0.0,32,0.00,CLR,,0.00,WeatherDisplay:10.37,2013-07-13 01:50:00,
2013-07-12 21:52:00,65.3,35.4,30.03,NNW,337,0.0,0.0,33,0.00,CLR,,0.00,WeatherDisplay:10.37,2013-07-13 01:52:00,
2013-07-12 21:55:00,65.1,35.3,29.97,North,0,0.0,0.0,33,0.00,CLR,,0.00,WeatherDisplay:10.37,2013-07-13 01:55:00,
2013-07-12 21:56:00,65.1,35.3,29.98,North,0,0.0,0.0,33,0.00,CLR,,0.00,WeatherDisplay:10.37,2013-07-13 01:56:00,
2013-07-12 21:58:00,65.1,35.3,30.01,NNE,22,0.0,0.0,33,0.00,CLR,,0.00,WeatherDisplay:10.37,2013-07-13 01:58:00,
2013-07-12 21:59:00,64.9,35.1,30.01,ENE,67,0.0,0.0,33,0.00,CLR,,0.00,WeatherDisplay:10.37,2013-07-13 01:59:00,
2013-07-12 22:02:00,64.9,35.9,29.99,ENE,67,0.0,0.0,34,0.00,CLR,,0.00,WeatherDisplay:10.37,2013-07-13 02:02:00,
2013-07-12 22:04:00,64.9,35.9,29.97,NE,45,0.0,0.0,34,0.00,CLR,,0.00,WeatherDisplay:10.37,2013-07-13 02:04:00,
2013-07-12 22:08:00,64.8,36.5,29.99,ENE,67,1.2,1.2,35,0.00,CLR,,0.00,WeatherDisplay:10.37,2013-07-13 02:08:00,
2013-07-12 22:09:00,64.8,36.5,30.02,ENE,67,1.2,1.2,35,0.00,CLR,,0.00,WeatherDisplay:10.37,2013-07-13 02:09:00,
2013-07-12 22:14:00,64.6,36.3,29.97,ENE,67,1.2,1.2,35,0.00,CLR,,0.00,WeatherDisplay:10.37,2013-07-13 02:14:00,
2013-07-12 22:18:00,64.6,36.3,30.01,NE,45,1.2,0.0,35,0.00,CLR,,0.00,WeatherDisplay:10.37,2013-07-13 02:18:00,
2013-07-12 22:19:00,64.6,36.3,29.97,NE,45,1.2,0.0,35,0.00,CLR,,0.00,WeatherDisplay:10.37,2013-07-13 02:19:00,
2013-07-12 22:22:00,64.6,36.3,30.02,ENE,67,1.2,1.2,35,0.00,CLR,,0.00,WeatherDisplay:10.37,2013-07-13 02:22:00,
2013-07-12 22:27:00,64.4,35.4,30.01,ESE,112,1.2,0.0,34,0.00,CLR,,0.00,WeatherDisplay:10.37,2013-07-13 02:27:00,
2013-07-12 22:29:00,64.4,35.4,30.01,NE,45,1.2,0.0,34,0.00,CLR,,0.00,WeatherDisplay:10.37,2013-07-13 02:29:00,
2013-07-12 22:30:00,64.4,35.4,29.99,NE,45,1.2,0.0,34,0.00,CLR,,0.00,WeatherDisplay:10.37,2013-07-13 02:30:00,
2013-07-12 22:32:00,64.4,36.1,29.97,NE,45,1.2,0.0,35,0.00,CLR,,0.00,WeatherDisplay:10.37,2013-07-13 02:32:00,
2013-07-12 22:36:00,64.2,36.0,30.01,ENE,67,1.2,0.0,35,0.00,CLR,,0.00,WeatherDisplay:10.37,2013-07-13 02:36:00,
2013-07-12 22:37:00,64.2,36.0,30.01,NE,45,1.2,0.0,35,0.00,CLR,,0.00,WeatherDisplay:10.37,2013-07-13 02:37:00,
2013-07-12 22:38:00,64.2,36.0,29.97,NE,45,1.2,0.0,35,0.00,CLR,,0.00,WeatherDisplay:10.37,2013-07-13 02:38:00,
2013-07-12 22:41:00,64.0,35.8,29.97,NE,45,0.0,1.0,35,0.00,CLR,,0.00,WeatherDisplay:10.37,2013-07-13 02:41:00,
2013-07-12 22:42:00,64.0,35.8,29.99,NE,45,1.0,1.0,35,0.00,CLR,,0.00,WeatherDisplay:10.37,2013-07-13 02:42:00,
2013-07-12 22:46:00,63.9,35.7,29.96,NE,45,2.3,2.3,35,0.00,CLR,,0.00,WeatherDisplay:10.37,2013-07-13 02:46:00,
2013-07-12 22:47:00,63.9,35.7,29.96,NE,45,2.3,0.0,35,0.00,CLR,,0.00,WeatherDisplay:10.37,2013-07-13 02:47:00,
2013-07-12 22:48:00,63.9,35.7,29.97,NE,45,2.3,0.0,35,0.00,CLR,,0.00,WeatherDisplay:10.37,2013-07-13 02:48:00,
2013-07-12 22:51:00,64.2,36.0,29.96,NE,45,2.3,0.0,35,0.00,CLR,,0.00,WeatherDisplay:10.37,2013-07-13 02:51:00,
2013-07-12 22:54:00,63.7,35.5,29.97,NNE,22,2.3,0.0,35,0.00,CLR,,0.00,WeatherDisplay:10.37,2013-07-13 02:54:00,
2013-07-12 22:59:00,63.5,36.0,29.96,East,90,2.3,0.0,36,0.00,CLR,,0.00,WeatherDisplay:10.37,2013-07-13 02:59:00,
2013-07-12 23:00:00,63.3,35.9,29.96,East,90,2.3,0.0,36,0.00,CLR,,0.00,WeatherDisplay:10.37,2013-07-13 03:00:00,
2013-07-12 23:05:00,63.0,35.6,29.96,East,90,2.3,0.0,36,0.00,CLR,,0.00,WeatherDisplay:10.37,2013-07-13 03:05:00,
2013-07-12 23:07:00,63.0,35.6,29.96,East,90,2.3,0.0,36,0.00,CLR,,0.00,WeatherDisplay:10.37,2013-07-13 03:07:00,
2013-07-12 23:08:00,63.0,35.6,29.96,East,90,2.3,0.0,36,0.00,CLR,,0.00,WeatherDisplay:10.37,2013-07-13 03:08:00,
2013-07-12 23:10:00,62.8,34.7,29.96,East,90,2.3,0.0,35,0.00,CLR,,0.00,WeatherDisplay:10.37,2013-07-13 03:10:00,
2013-07-12 23:11:00,63.1,35.0,29.96,East,90,2.3,0.0,35,0.00,CLR,,0.00,WeatherDisplay:10.37,2013-07-13 03:11:00,
2013-07-12 23:13:00,62.6,34.5,30.01,SSW,202,2.3,2.3,35,0.00,CLR,,0.00,WeatherDisplay:10.37,2013-07-13 03:13:00,
2013-07-12 23:15:00,62.6,33.8,29.96,SSW,202,2.3,0.0,34,0.00,CLR,,0.00,WeatherDisplay:10.37,2013-07-13 03:15:00,
2013-07-12 23:17:00,62.4,33.7,29.97,SSW,202,2.3,0.0,34,0.00,CLR,,0.00,WeatherDisplay:10.37,2013-07-13 03:17:00,
2013-07-12 23:18:00,62.4,33.7,29.97,SSW,202,2.3,0.0,34,0.00,CLR,,0.00,WeatherDisplay:10.37,2013-07-13 03:18:00,
2013-07-12 23:20:00,62.4,34.4,30.05,SSW,202,2.3,0.0,35,0.00,CLR,,0.00,WeatherDisplay:10.37,2013-07-13 03:20:00,
2013-07-12 23:22:00,62.2,34.2,30.00,SSW,202,2.3,0.0,35,0.00,CLR,,0.00,WeatherDisplay:10.37,2013-07-13 03:22:00,
2013-07-12 23:23:00,62.1,34.1,30.00,SSW,202,2.3,0.0,35,0.00,CLR,,0.00,WeatherDisplay:10.37,2013-07-13 03:23:00,
2013-07-12 23:25:00,62.1,34.1,29.97,SSW,202,2.3,0.0,35,0.00,CLR,,0.00,WeatherDisplay:10.37,2013-07-13 03:25:00,
2013-07-12 23:29:00,61.7,33.0,29.98,SSW,202,2.3,0.0,34,0.00,CLR,,0.00,WeatherDisplay:10.37,2013-07-13 03:29:00,
2013-07-12 23:33:00,61.7,33.7,29.97,SSW,202,2.3,0.0,35,0.00,CLR,,0.00,WeatherDisplay:10.37,2013-07-13 03:33:00,
2013-07-12 23:34:00,61.7,33.7,29.99,SSW,202,2.3,0.0,35,0.00,CLR,,0.00,WeatherDisplay:10.37,2013-07-13 03:34:00,
2013-07-12 23:36:00,61.7,33.7,30.02,SSW,202,2.3,0.0,35,0.00,CLR,,0.00,WeatherDisplay:10.37,2013-07-13 03:36:00,
2013-07-12 23:37:00,61.5,33.6,30.02,SSW,202,2.3,0.0,35,0.00,CLR,,0.00,WeatherDisplay:10.37,2013-07-13 03:37:00,
2013-07-12 23:40:00,61.5,34.3,30.07,SSW,202,0.0,0.0,36,0.00,CLR,,0.00,WeatherDisplay:10.37,2013-07-13 03:40:00,
2013-07-12 23:42:00,61.3,34.8,30.03,SSW,202,0.0,0.0,37,0.00,CLR,,0.00,WeatherDisplay:10.37,2013-07-13 03:42:00,
2013-07-12 23:49:00,61.2,34.0,30.08,NE,45,1.3,2.4,36,0.00,CLR,,0.00,WeatherDisplay:10.37,2013-07-13 03:49:00,
2013-07-12 23:50:00,61.2,34.0,29.97,NE,45,2.4,2.4,36,0.00,CLR,,0.00,WeatherDisplay:10.37,2013-07-13 03:50:00,
2013-07-12 23:51:00,61.2,34.0,29.97,NE,45,2.4,2.4,36,0.00,CLR,,0.00,WeatherDisplay:10.37,2013-07-13 03:51:00,
2013-07-12 23:52:00,61.2,34.0,29.97,NE,45,2.4,2.4,36,0.00,CLR,,0.00,WeatherDisplay:10.37,2013-07-13 03:52:00,
2013-07-12 23:55:00,61.2,34.7,30.07,North,0,2.6,2.6,37,0.00,CLR,,0.00,WeatherDisplay:10.37,2013-07-13 03:55:00,
2013-07-12 23:56:00,61.2,34.7,30.07,East,90,2.6,2.6,37,0.00,CLR,,0.00,WeatherDisplay:10.37,2013-07-13 03:56:00,
2013-07-12 23:57:00,61.2,34.7,30.07,East,90,2.6,2.6,37,0.00,CLR,,0.00,WeatherDisplay:10.37,2013-07-13 03:57:00,